createdAt,value
2018-09-09T15:03:07.353Z,21.6
2018-09-09T15:04:07.277Z,21.7
2018-09-09T15:05:07.420Z,21.7
2018-09-09T15:06:08.089Z,21.7
2018-09-09T15:07:08.012Z,21.6
2018-09-09T15:08:09.474Z,21.7
2018-09-09T15:09:09.371Z,21.7
2018-09-09T15:10:09.514Z,21.6
2018-09-09T15:11:09.463Z,21.6
2018-09-09T15:12:10.715Z,21.5
2018-09-09T15:13:10.645Z,21.6
2018-09-09T15:14:12.113Z,21.5
2018-09-09T15:15:12.034Z,21.5
2018-09-09T15:16:15.094Z,21.5
2018-09-09T15:17:16.007Z,21.5
2018-09-09T15:18:15.912Z,21.5
2018-09-09T15:19:16.060Z,21.6
2018-09-09T15:20:16.024Z,21.5
2018-09-09T15:21:15.983Z,21.5
2018-09-09T15:22:17.900Z,21.5
2018-09-09T15:23:17.829Z,21.5
2018-09-09T15:24:17.765Z,21.5
2018-09-09T15:25:17.898Z,21.5
2018-09-09T15:26:17.835Z,21.5
2018-09-09T15:27:18.429Z,21.5
2018-09-09T15:28:18.340Z,21.4
2018-09-09T15:29:18.277Z,21.5
2018-09-09T15:30:18.426Z,21.4
2018-09-09T15:31:18.347Z,21.4
2018-09-09T15:32:19.415Z,21.4
2018-09-09T15:33:19.558Z,21.4
2018-09-09T15:34:19.643Z,21.4
2018-09-09T15:35:20.414Z,21.4
2018-09-09T15:36:20.359Z,21.4
2018-09-09T15:37:20.293Z,21.4
2018-09-09T15:38:20.211Z,21.3
2018-09-09T15:39:20.365Z,21.3
2018-09-09T15:40:20.519Z,21.3
2018-09-09T15:41:20.444Z,21.3
2018-09-09T15:42:21.063Z,21.3
2018-09-09T15:43:20.988Z,21.2
2018-09-09T15:44:20.896Z,21.3
2018-09-09T15:45:20.990Z,21.3
2018-09-09T15:46:21.116Z,21.2
2018-09-09T15:47:21.060Z,21.4
2018-09-09T15:48:21.052Z,21.3
2018-09-09T15:49:20.996Z,21.2
2018-09-09T15:50:20.923Z,21.3
2018-09-09T15:51:21.872Z,21.3
2018-09-09T15:52:23.789Z,21.3
2018-09-09T15:53:26.752Z,21.2
2018-09-09T15:54:26.685Z,21.2
2018-09-09T15:55:28.169Z,21.2
2018-09-09T15:56:28.096Z,21.1
2018-09-09T15:57:28.053Z,21.2
2018-09-09T15:58:30.537Z,21.2
2018-09-09T15:59:30.451Z,21.2
2018-09-09T16:00:31.229Z,21.3
2018-09-09T16:01:31.604Z,21.3
2018-09-09T16:02:32.207Z,21.4
2018-09-09T16:03:32.372Z,21.4
2018-09-09T16:04:32.292Z,21.4
2018-09-09T16:05:32.240Z,21.4
2018-09-09T16:06:32.174Z,21.4
2018-09-09T16:07:32.107Z,21.3
2018-09-09T16:08:33.081Z,21.4
2018-09-09T16:09:33.008Z,21.4
2018-09-09T16:10:32.915Z,21.4
2018-09-09T16:11:32.881Z,21.3
2018-09-09T16:12:33.265Z,21.4
2018-09-09T16:13:33.193Z,21.4
2018-09-09T16:14:33.110Z,21.5
2018-09-09T16:15:33.021Z,21.5
2018-09-09T16:16:32.925Z,21.5
2018-09-09T16:17:33.124Z,21.5
2018-09-09T16:18:33.149Z,21.5
2018-09-09T16:19:33.359Z,21.5
2018-09-09T16:20:33.279Z,21.4
2018-09-09T16:21:33.426Z,21.3
2018-09-09T16:22:34.478Z,21.3
2018-09-09T16:23:34.750Z,21.3
2018-09-09T16:24:35.196Z,21.3
2018-09-09T16:25:35.219Z,21.3
2018-09-09T16:26:35.585Z,21.3
2018-09-09T16:27:35.489Z,21.2
2018-09-09T16:28:35.646Z,21.2
2018-09-09T16:29:35.769Z,21.2
2018-09-09T16:30:35.726Z,21.2
2018-09-09T16:31:37.311Z,21.3
2018-09-09T16:32:38.351Z,21.3
2018-09-09T16:33:38.289Z,21.3
2018-09-09T16:34:38.652Z,21.4
2018-09-09T16:35:38.570Z,21.3
2018-09-09T16:36:38.704Z,21.4
2018-09-09T16:37:41.399Z,21.3
2018-09-09T16:38:41.340Z,21.3
2018-09-09T16:39:41.712Z,21.4
2018-09-09T16:40:41.886Z,21.5
2018-09-09T16:41:42.021Z,21.5
2018-09-09T16:42:46.401Z,21.6
2018-09-09T16:43:46.362Z,21.6
2018-09-09T16:44:46.278Z,21.7
2018-09-09T16:45:50.420Z,21.7
2018-09-09T16:46:50.601Z,21.7
2018-09-09T16:47:51.331Z,21.7
2018-09-09T16:48:51.285Z,21.7
2018-09-09T16:49:51.420Z,21.6
2018-09-09T16:50:54.382Z,21.6
2018-09-09T16:51:54.302Z,21.6
2018-09-09T16:52:55.182Z,21.5
2018-09-09T16:53:55.954Z,21.5
2018-09-09T16:54:55.869Z,21.6
2018-09-09T16:55:55.833Z,21.5
2018-09-09T16:56:55.750Z,21.5
2018-09-09T16:57:56.336Z,21.5
2018-09-09T16:58:56.290Z,21.5
2018-09-09T16:59:56.217Z,21.5
2018-09-09T17:00:56.151Z,21.5
2018-09-09T17:01:56.309Z,21.5
2018-09-09T17:02:56.722Z,21.4
2018-09-09T17:03:56.639Z,21.4
2018-09-09T17:04:56.592Z,21.4
2018-09-09T17:05:56.510Z,21.3
2018-09-09T17:06:57.078Z,21.3
2018-09-09T17:07:56.998Z,21.3
2018-09-09T17:08:56.943Z,21.2
2018-09-09T17:09:56.867Z,21.2
2018-09-09T17:10:56.806Z,21.2
2018-09-09T17:11:56.727Z,21.1
2018-09-09T17:12:57.351Z,21
2018-09-09T17:13:57.343Z,21
2018-09-09T17:14:57.322Z,21
2018-09-09T17:15:57.248Z,21
2018-09-09T17:16:59.848Z,20.9
2018-09-09T17:17:59.785Z,20.9
2018-09-09T17:18:59.720Z,20.9
2018-09-09T17:19:59.636Z,20.9
2018-09-09T17:20:59.573Z,20.9
2018-09-09T17:21:59.496Z,20.8
2018-09-09T17:23:01.094Z,20.8
2018-09-09T17:24:01.035Z,20.8
2018-09-09T17:25:00.960Z,20.7
2018-09-09T17:26:00.885Z,20.7
2018-09-09T17:27:01.010Z,20.6
2018-09-09T17:28:01.311Z,20.6
2018-09-09T17:29:01.562Z,20.5
2018-09-09T17:30:01.517Z,20.5
2018-09-09T17:31:01.437Z,20.5
2018-09-09T17:32:01.650Z,20.3
2018-09-09T17:33:02.495Z,20.3
2018-09-09T17:34:02.445Z,20.3
2018-09-09T17:35:02.718Z,20.2
2018-09-09T17:36:02.700Z,20.2
2018-09-09T17:37:02.863Z,20.2
2018-09-09T17:38:02.764Z,20.2
2018-09-09T17:39:05.271Z,20.2
2018-09-09T17:40:05.215Z,20.2
2018-09-09T17:41:05.148Z,20.2
2018-09-09T17:42:05.082Z,20
2018-09-09T17:43:05.465Z,20.1
2018-09-09T17:44:05.385Z,20.1
2018-09-09T17:45:06.325Z,20
2018-09-09T17:46:06.249Z,20
2018-09-09T17:47:06.391Z,19.9
2018-09-09T17:48:06.318Z,19.9
2018-09-09T17:49:06.234Z,19.8
2018-09-09T17:50:06.155Z,19.8
2018-09-09T17:51:06.324Z,19.7
2018-09-09T17:52:06.252Z,19.7
2018-09-09T17:53:06.664Z,19.7
2018-09-09T17:54:06.643Z,19.6
2018-09-09T17:55:06.572Z,19.6
2018-09-09T17:56:06.546Z,19.5
2018-09-09T17:57:06.492Z,19.5
2018-09-09T17:58:06.426Z,19.4
2018-09-09T17:59:06.340Z,19.4
2018-09-09T18:00:07.252Z,19.4
2018-09-09T18:01:07.204Z,19.4
2018-09-09T18:02:07.138Z,19.3
2018-09-09T18:03:08.047Z,19.2
2018-09-09T18:04:07.983Z,19.3
2018-09-09T18:05:07.911Z,19.2
2018-09-09T18:06:07.830Z,19.2
2018-09-09T18:07:07.801Z,19.2
2018-09-09T18:08:08.126Z,19.2
2018-09-09T18:09:08.311Z,19.2
2018-09-09T18:10:08.389Z,19.1
2018-09-09T18:11:08.697Z,19.1
2018-09-09T18:12:08.762Z,19.1
2018-09-09T18:13:09.145Z,19
2018-09-09T18:14:09.236Z,19
2018-09-09T18:15:09.696Z,19
2018-09-09T18:16:09.628Z,19
2018-09-09T18:17:09.577Z,19
2018-09-09T18:18:09.516Z,19
2018-09-09T18:19:10.091Z,19
2018-09-09T18:20:10.084Z,19
2018-09-09T18:21:10.150Z,19
2018-09-09T18:22:10.109Z,18.9
2018-09-09T18:23:10.810Z,18.9
2018-09-09T18:24:10.747Z,18.9
2018-09-09T18:25:10.683Z,18.9
2018-09-09T18:26:10.631Z,18.8
2018-09-09T18:27:10.597Z,18.8
2018-09-09T18:28:10.544Z,18.8
2018-09-09T18:29:10.486Z,18.7
2018-09-09T18:30:13.541Z,18.6
2018-09-09T18:31:13.702Z,18.6
2018-09-09T18:32:13.712Z,18.5
2018-09-09T18:33:14.528Z,18.5
2018-09-09T18:34:14.488Z,18.5
2018-09-09T18:35:14.449Z,18.5
2018-09-09T18:36:14.427Z,18.5
2018-09-09T18:37:14.362Z,18.5
2018-09-09T18:38:14.353Z,18.5
2018-09-09T18:39:14.655Z,18.5
2018-09-09T18:40:14.757Z,18.4
2018-09-09T18:41:14.798Z,18.3
2018-09-09T18:42:14.753Z,18.3
2018-09-09T18:43:15.180Z,18.3
2018-09-09T18:44:15.129Z,18.2
2018-09-09T18:45:15.097Z,18.1
2018-09-09T18:46:15.052Z,18.1
2018-09-09T18:47:15.009Z,18.1
2018-09-09T18:48:14.983Z,18.1
2018-09-09T18:49:14.969Z,18.1
2018-09-09T18:50:14.945Z,18.1
2018-09-09T18:51:17.599Z,18.1
2018-09-09T18:52:17.541Z,18
2018-09-09T18:53:18.169Z,18
2018-09-09T18:54:18.097Z,18
2018-09-09T18:55:18.036Z,18
2018-09-09T18:56:18.191Z,17.9
2018-09-09T18:57:18.127Z,17.9
2018-09-09T18:58:18.078Z,17.8
2018-09-09T18:59:18.470Z,17.8
2018-09-09T19:00:19.808Z,17.8
2018-09-09T19:01:19.737Z,17.8
2018-09-09T19:02:20.386Z,17.8
2018-09-09T19:03:21.498Z,17.8
2018-09-09T19:04:21.413Z,17.9
2018-09-09T19:05:21.373Z,17.9
2018-09-09T19:06:21.817Z,17.8
2018-09-09T19:07:22.372Z,17.8
2018-09-09T19:08:22.296Z,17.7
2018-09-09T19:09:22.549Z,17.6
2018-09-09T19:10:22.547Z,17.6
2018-09-09T19:11:22.522Z,17.6
2018-09-09T19:12:22.513Z,17.6
2018-09-09T19:13:23.964Z,17.6
2018-09-09T19:14:23.933Z,17.6
2018-09-09T19:15:23.915Z,17.5
2018-09-09T19:16:24.176Z,17.7
2018-09-09T19:17:24.097Z,17.6
2018-09-09T19:18:24.033Z,17.6
2018-09-09T19:19:24.625Z,17.7
2018-09-09T19:20:24.591Z,17.7
2018-09-09T19:21:24.770Z,17.6
2018-09-09T19:22:25.457Z,17.6
2018-09-09T19:23:25.897Z,17.7
2018-09-09T19:24:26.280Z,17.8
2018-09-09T19:25:26.183Z,17.8
2018-09-09T19:26:26.140Z,17.8
2018-09-09T19:27:26.096Z,17.7
2018-09-09T19:28:26.048Z,17.8
2018-09-09T19:29:26.034Z,17.7
2018-09-09T19:30:25.965Z,17.7
2018-09-09T19:31:25.904Z,17.7
2018-09-09T19:32:25.836Z,17.7
2018-09-09T19:33:26.451Z,17.6
2018-09-09T19:34:26.391Z,17.6
2018-09-09T19:35:26.313Z,17.5
2018-09-09T19:36:26.356Z,17.5
2018-09-09T19:37:26.583Z,17.5
2018-09-09T19:38:26.521Z,17.5
2018-09-09T19:39:26.712Z,17.4
2018-09-09T19:40:26.638Z,17.5
2018-09-09T19:41:26.573Z,17.4
2018-09-09T19:42:26.484Z,17.4
2018-09-09T19:43:26.871Z,17.4
2018-09-09T19:44:27.042Z,17.4
2018-09-09T19:45:26.984Z,17.4
2018-09-09T19:46:27.127Z,17.4
2018-09-09T19:47:27.064Z,17.5
2018-09-09T19:48:26.998Z,17.4
2018-09-09T19:49:28.144Z,17.4
2018-09-09T19:50:28.086Z,17.4
2018-09-09T19:51:28.012Z,17.4
2018-09-09T19:52:27.931Z,17.3
2018-09-09T19:53:28.749Z,17.3
2018-09-09T19:54:28.917Z,17.2
2018-09-09T19:55:28.830Z,17.2
2018-09-09T19:56:31.721Z,17.1
2018-09-09T19:57:31.642Z,17.1
2018-09-09T19:58:31.560Z,17.1
2018-09-09T19:59:34.495Z,17.2
2018-09-09T20:00:34.413Z,17.1
2018-09-09T20:01:34.331Z,17.1
2018-09-09T20:02:34.251Z,17.2
2018-09-09T20:03:34.647Z,17.1
2018-09-09T20:04:34.618Z,17.1
2018-09-09T20:05:38.441Z,17.1
2018-09-09T20:06:38.352Z,17.2
2018-09-09T20:07:38.279Z,17.1
2018-09-09T20:08:38.213Z,17.1
2018-09-09T20:09:38.362Z,17
2018-09-09T20:10:38.274Z,17
2018-09-09T20:11:39.204Z,17
2018-09-09T20:12:39.111Z,17
2018-09-09T20:13:39.470Z,16.9
2018-09-09T20:14:40.445Z,16.9
2018-09-09T20:15:40.463Z,16.8
2018-09-09T20:16:40.754Z,16.8
2018-09-09T20:17:40.697Z,16.8
2018-09-09T20:18:41.602Z,16.8
2018-09-09T20:19:44.213Z,16.8
2018-09-09T20:20:44.350Z,16.8
2018-09-09T20:21:44.271Z,16.7
2018-09-09T20:22:44.210Z,16.7
2018-09-09T20:23:46.560Z,16.7
2018-09-09T20:24:47.590Z,16.7
2018-09-09T20:25:47.793Z,16.7
2018-09-09T20:26:48.357Z,16.8
2018-09-09T20:27:48.275Z,16.8
2018-09-09T20:28:48.412Z,16.8
2018-09-09T20:29:48.342Z,16.9
2018-09-09T20:30:48.274Z,16.9
2018-09-09T20:31:48.196Z,16.8
2018-09-09T20:32:48.335Z,16.9
2018-09-09T20:33:49.756Z,16.9
2018-09-09T20:34:49.687Z,16.9
2018-09-09T20:35:49.638Z,16.9
2018-09-09T20:36:49.556Z,16.9
2018-09-09T20:37:49.471Z,16.9
2018-09-09T20:38:49.679Z,16.7
2018-09-09T20:39:51.056Z,16.8
2018-09-09T20:40:51.012Z,16.7
2018-09-09T20:41:54.011Z,16.8
2018-09-09T20:42:53.933Z,16.8
2018-09-09T20:43:54.282Z,16.8
2018-09-09T20:44:54.221Z,16.7
2018-09-09T20:45:54.140Z,16.7
2018-09-09T20:46:54.274Z,16.7
2018-09-09T20:47:55.184Z,16.7
2018-09-09T20:48:55.321Z,16.7
2018-09-09T20:49:55.277Z,16.7
2018-09-09T20:50:55.185Z,16.7
2018-09-09T20:51:58.802Z,16.7
2018-09-09T20:52:58.729Z,16.7
2018-09-09T20:53:59.121Z,16.6
2018-09-09T20:55:09.259Z,16.6
2018-09-09T20:56:09.177Z,16.6
2018-09-09T20:57:12.199Z,16.5
2018-09-09T20:58:12.113Z,16.5
2018-09-09T20:59:12.261Z,16.4
2018-09-09T21:00:12.351Z,16.4
2018-09-09T21:01:12.530Z,16.4
2018-09-09T21:02:13.441Z,16.4
2018-09-09T21:03:13.362Z,16.4
2018-09-09T21:04:13.708Z,16.4
2018-09-09T21:05:13.639Z,16.4
2018-09-09T21:06:13.558Z,16.4
2018-09-09T21:07:16.059Z,16.3
2018-09-09T21:08:15.993Z,16.3
2018-09-09T21:09:15.969Z,16.3
2018-09-09T21:10:15.903Z,16.4
2018-09-09T21:11:15.827Z,16.3
2018-09-09T21:12:15.970Z,16.3
2018-09-09T21:13:15.893Z,16.2
2018-09-09T21:14:16.946Z,16.3
2018-09-09T21:15:17.556Z,16.2
2018-09-09T21:16:17.492Z,16.1
2018-09-09T21:17:17.639Z,16.1
2018-09-09T21:18:17.549Z,16.2
2018-09-09T21:19:17.478Z,16.2
2018-09-09T21:20:17.410Z,16.1
2018-09-09T21:21:17.557Z,16
2018-09-09T21:22:17.473Z,16
2018-09-09T21:23:17.383Z,16
2018-09-09T21:24:17.750Z,16
2018-09-09T21:25:17.676Z,15.9
2018-09-09T21:26:17.976Z,15.9
2018-09-09T21:27:17.950Z,16
2018-09-09T21:28:18.084Z,16
2018-09-09T21:29:18.217Z,16
2018-09-09T21:30:18.146Z,16
2018-09-09T21:31:18.078Z,16.1
2018-09-09T21:32:18.288Z,16.1
2018-09-09T21:33:20.825Z,16
2018-09-09T21:34:21.661Z,15.9
2018-09-09T21:35:21.565Z,16
2018-09-09T21:36:21.737Z,16
2018-09-09T21:37:21.653Z,16
2018-09-09T21:38:21.597Z,16
2018-09-09T21:39:21.715Z,16.1
2018-09-09T21:40:21.711Z,16.1
2018-09-09T21:41:22.647Z,16
2018-09-09T21:42:22.848Z,16
2018-09-09T21:43:23.805Z,16.1
2018-09-09T21:44:24.205Z,16
2018-09-09T21:45:24.334Z,15.9
2018-09-09T21:46:25.271Z,15.9
2018-09-09T21:47:25.220Z,15.9
2018-09-09T21:48:34.520Z,15.9
2018-09-09T21:49:34.435Z,15.9
2018-09-09T21:50:34.356Z,15.9
2018-09-09T21:51:38.205Z,15.9
2018-09-09T21:52:38.127Z,15.7
2018-09-09T21:53:39.067Z,15.9
2018-09-09T21:54:43.397Z,15.9
2018-09-09T21:55:43.320Z,15.8
2018-09-09T21:56:43.273Z,15.8
2018-09-09T21:57:43.178Z,15.8
2018-09-09T21:58:46.070Z,15.7
2018-09-09T21:59:51.451Z,15.8
2018-09-09T22:00:51.588Z,15.8
2018-09-09T22:01:51.528Z,15.8
2018-09-09T22:02:52.444Z,15.8
2018-09-09T22:03:52.365Z,15.8
2018-09-09T22:04:59.306Z,15.8
2018-09-09T22:05:59.447Z,15.8
2018-09-09T22:06:59.372Z,15.8
2018-09-09T22:07:59.957Z,15.7
2018-09-09T22:08:59.872Z,15.7
2018-09-09T22:10:03.773Z,15.7
2018-09-09T22:11:03.685Z,15.8
2018-09-09T22:12:08.475Z,15.8
2018-09-09T22:13:08.377Z,15.9
2018-09-09T22:14:08.300Z,15.7
2018-09-09T22:15:11.524Z,15.7
2018-09-09T22:16:11.501Z,15.8
2018-09-09T22:17:14.271Z,15.8
2018-09-09T22:18:20.910Z,15.8
2018-09-09T22:19:20.814Z,15.7
2018-09-09T22:20:20.960Z,15.7
2018-09-09T22:21:20.875Z,15.8
2018-09-09T22:22:21.035Z,15.7
2018-09-09T22:23:20.940Z,15.8
2018-09-09T22:24:20.839Z,15.7
2018-09-09T22:25:24.469Z,15.7
2018-09-09T22:26:28.260Z,15.7
2018-09-09T22:27:29.200Z,15.7
2018-09-09T22:28:35.600Z,15.7
2018-09-09T22:29:35.709Z,15.7
2018-09-09T22:30:38.555Z,15.7
2018-09-09T22:31:38.749Z,15.9
2018-09-09T22:32:39.163Z,15.7
2018-09-09T22:33:39.067Z,15.8
2018-09-09T22:34:38.974Z,15.8
2018-09-09T22:35:49.123Z,15.8
2018-09-09T22:36:50.032Z,15.8
2018-09-09T22:37:53.870Z,15.8
2018-09-09T22:38:54.452Z,15.8
2018-09-09T22:39:54.371Z,15.8
2018-09-09T22:40:58.086Z,15.8
2018-09-09T22:41:58.004Z,15.8
2018-09-09T22:42:57.933Z,15.7
2018-09-09T22:44:01.001Z,15.7
2018-09-09T22:45:00.941Z,15.7
2018-09-09T22:46:02.390Z,15.6
2018-09-09T22:47:04.321Z,15.6
2018-09-09T22:48:04.265Z,15.6
2018-09-09T22:49:04.408Z,15.5
2018-09-09T22:50:04.333Z,15.5
2018-09-09T22:51:04.264Z,15.5
2018-09-09T22:52:08.085Z,15.5
2018-09-09T22:53:09.243Z,15.5
2018-09-09T22:54:09.172Z,15.4
2018-09-09T22:55:12.261Z,15.4
2018-09-09T22:56:12.822Z,15.4
2018-09-09T22:57:12.845Z,15.4
2018-09-09T22:58:12.784Z,15.4
2018-09-09T22:59:12.941Z,15.4
2018-09-09T23:00:13.322Z,15.3
2018-09-09T23:01:13.235Z,15.2
2018-09-09T23:02:13.143Z,15.2
2018-09-09T23:03:13.073Z,15.1
2018-09-09T23:04:12.990Z,15
2018-09-09T23:05:16.965Z,15.1
2018-09-09T23:06:20.874Z,15.3
2018-09-09T23:07:20.811Z,15.1
2018-09-09T23:08:20.724Z,15.1
2018-09-09T23:09:21.101Z,15.1
2018-09-09T23:10:21.001Z,15.1
2018-09-09T23:11:20.911Z,15
2018-09-09T23:12:21.509Z,15
2018-09-09T23:13:22.630Z,15.1
2018-09-09T23:14:22.575Z,15
2018-09-09T23:15:22.495Z,15
2018-09-09T23:16:23.048Z,15
2018-09-09T23:17:22.947Z,15
2018-09-09T23:18:23.081Z,15
2018-09-09T23:19:25.873Z,15
2018-09-09T23:20:28.334Z,15
2018-09-09T23:21:32.040Z,15.1
2018-09-09T23:22:31.936Z,15
2018-09-09T23:23:31.857Z,15
2018-09-09T23:24:32.253Z,14.9
2018-09-09T23:25:32.188Z,15
2018-09-09T23:26:35.374Z,14.7
2018-09-09T23:27:35.546Z,14.9
2018-09-09T23:28:35.474Z,14.9
2018-09-09T23:29:35.567Z,14.9
2018-09-09T23:30:38.016Z,14.9
2018-09-09T23:31:38.916Z,15
2018-09-09T23:32:39.067Z,15
2018-09-09T23:33:38.976Z,15
2018-09-09T23:34:39.146Z,15
2018-09-09T23:35:39.065Z,15
2018-09-09T23:36:44.834Z,15
2018-09-09T23:37:44.746Z,14.9
2018-09-09T23:38:48.233Z,14.9
2018-09-09T23:39:52.206Z,14.9
2018-09-09T23:40:52.097Z,14.9
2018-09-09T23:41:52.216Z,14.9
2018-09-09T23:42:52.127Z,14.9
2018-09-09T23:43:54.853Z,14.9
2018-09-09T23:44:54.791Z,15
2018-09-09T23:45:57.685Z,14.9
2018-09-09T23:46:58.275Z,14.9
2018-09-09T23:47:58.184Z,14.8
2018-09-09T23:48:59.101Z,14.8
2018-09-09T23:49:59.023Z,14.8
2018-09-09T23:51:08.148Z,14.8
2018-09-09T23:52:08.062Z,14.8
2018-09-09T23:53:09.198Z,14.8
2018-09-09T23:54:09.101Z,14.8
2018-09-09T23:55:09.040Z,14.8
2018-09-09T23:56:09.167Z,14.8
2018-09-09T23:57:13.650Z,14.7
2018-09-09T23:58:14.557Z,14.7
2018-09-09T23:59:15.474Z,14.7
